createdAt,value
2022-11-23T00:00:05.677Z,9.77
2022-11-23T00:02:32.367Z,9.98
2022-11-23T00:04:58.993Z,9.93
2022-11-23T00:07:25.557Z,9.85
2022-11-23T00:09:53.521Z,8.82
2022-11-23T00:14:46.889Z,8.80
2022-11-23T00:17:13.440Z,9.43
2022-11-23T00:19:39.994Z,8.73
2022-11-23T00:22:06.809Z,8.98
2022-11-23T00:24:33.432Z,8.68
2022-11-23T00:27:00.043Z,9.20
2022-11-23T00:29:27.430Z,9.07
2022-11-23T00:31:54.071Z,8.57
2022-11-23T00:34:20.788Z,8.40
2022-11-23T00:36:47.499Z,8.63
2022-11-23T00:39:16.144Z,8.55
2022-11-23T00:41:42.791Z,8.07
2022-11-23T00:44:09.497Z,8.20
2022-11-23T00:46:36.035Z,8.43
2022-11-23T00:49:02.627Z,7.97
2022-11-23T00:51:30.959Z,8.20
2022-11-23T00:53:57.712Z,7.93
2022-11-23T00:56:24.301Z,7.93
2022-11-23T00:58:51.520Z,7.80
2022-11-23T01:01:19.771Z,8.48
2022-11-23T01:03:51.326Z,8.10
2022-11-23T01:06:19.729Z,8.32
2022-11-23T01:08:59.540Z,7.90
2022-11-23T01:11:27.345Z,8.73
2022-11-23T01:16:31.465Z,8.80
2022-11-23T01:19:02.567Z,8.53
2022-11-23T01:21:29.853Z,8.40
2022-11-23T01:23:56.558Z,7.35
2022-11-23T01:26:23.350Z,7.87
2022-11-23T01:28:50.234Z,7.93
2022-11-23T01:31:18.934Z,8.30
2022-11-23T01:33:45.891Z,8.40
2022-11-23T01:36:13.492Z,8.23
2022-11-23T01:38:41.039Z,9.30
2022-11-23T01:41:08.192Z,8.95
2022-11-23T01:43:34.857Z,9.23
2022-11-23T01:46:02.083Z,9.30
2022-11-23T01:48:40.602Z,7.85
2022-11-23T01:53:35.430Z,8.43
2022-11-23T01:56:02.745Z,8.68
2022-11-23T01:58:37.028Z,8.65
2022-11-23T02:01:03.787Z,8.52
2022-11-23T02:03:30.358Z,8.13
2022-11-23T02:06:01.374Z,8.57
2022-11-23T02:08:28.033Z,9.07
2022-11-23T02:10:58.100Z,8.85
2022-11-23T02:13:24.742Z,7.82
2022-11-23T02:15:51.716Z,8.20
2022-11-23T02:18:26.401Z,8.27
2022-11-23T02:20:53.045Z,8.23
2022-11-23T02:23:34.739Z,8.80
2022-11-23T02:26:09.649Z,8.15
2022-11-23T02:28:42.167Z,8.65
2022-11-23T02:31:09.009Z,8.60
2022-11-23T02:33:38.509Z,8.93
2022-11-23T02:36:44.065Z,9.48
2022-11-23T02:39:13.174Z,9.50
2022-11-23T02:41:55.618Z,10.25
2022-11-23T02:44:43.820Z,11.30
2022-11-23T02:47:11.083Z,10.87
2022-11-23T02:49:37.671Z,11.88
2022-11-23T02:52:04.465Z,12.32
2022-11-23T02:54:31.163Z,11.02
2022-11-23T02:56:57.784Z,12.25
2022-11-23T02:59:24.556Z,11.65
2022-11-23T03:01:53.798Z,11.75
2022-11-23T03:04:26.048Z,11.27
2022-11-23T03:06:54.350Z,11.35
2022-11-23T03:09:20.946Z,11.57
2022-11-23T03:11:47.738Z,10.77
2022-11-23T03:14:14.516Z,9.90
2022-11-23T03:16:41.110Z,10.57
2022-11-23T03:19:07.704Z,9.55
2022-11-23T03:21:34.274Z,9.75
2022-11-23T03:24:00.867Z,10.57
2022-11-23T03:26:27.445Z,9.95
2022-11-23T03:28:54.085Z,9.15
2022-11-23T03:31:20.699Z,9.55
2022-11-23T03:33:47.547Z,9.25
2022-11-23T03:36:14.359Z,9.10
2022-11-23T03:38:41.075Z,8.52
2022-11-23T03:41:07.770Z,9.52
2022-11-23T03:43:34.588Z,8.50
2022-11-23T03:46:01.243Z,8.27
2022-11-23T03:48:27.943Z,7.93
2022-11-23T03:50:56.091Z,9.15
2022-11-23T03:53:22.772Z,8.35
2022-11-23T03:55:54.979Z,7.82
2022-11-23T03:58:21.609Z,8.73
2022-11-23T04:00:48.487Z,7.95
2022-11-23T04:03:15.847Z,8.23
2022-11-23T04:05:42.620Z,8.18
2022-11-23T04:08:09.559Z,8.35
2022-11-23T04:10:36.163Z,7.33
2022-11-23T04:13:02.886Z,7.82
2022-11-23T04:15:29.723Z,7.28
2022-11-23T04:17:56.361Z,7.70
2022-11-23T04:20:22.988Z,7.62
2022-11-23T04:22:51.209Z,7.43
2022-11-23T04:25:17.963Z,7.35
2022-11-23T04:27:45.333Z,6.97
2022-11-23T04:30:12.418Z,7.37
2022-11-23T04:32:39.001Z,5.93
2022-11-23T04:35:05.844Z,5.72
2022-11-23T04:37:32.415Z,6.28
2022-11-23T04:39:59.037Z,6.43
2022-11-23T04:42:25.588Z,5.72
2022-11-23T04:44:52.231Z,5.72
2022-11-23T04:47:19.320Z,5.50
2022-11-23T04:49:45.951Z,5.07
2022-11-23T04:52:12.608Z,5.12
2022-11-23T04:54:39.259Z,5.32
2022-11-23T04:57:05.835Z,5.50
2022-11-23T04:59:32.712Z,4.85
2022-11-23T05:01:59.531Z,4.47
2022-11-23T05:04:26.161Z,4.55
2022-11-23T05:06:52.780Z,4.82
2022-11-23T05:09:19.429Z,4.87
2022-11-23T05:11:46.151Z,4.32
2022-11-23T05:14:12.803Z,4.95
2022-11-23T05:16:39.474Z,4.50
2022-11-23T05:19:06.089Z,5.07
2022-11-23T05:21:32.805Z,4.50
2022-11-23T05:23:59.424Z,4.25
2022-11-23T05:26:25.998Z,4.93
2022-11-23T05:28:52.721Z,4.80
2022-11-23T05:31:19.621Z,5.18
2022-11-23T05:33:46.330Z,4.50
2022-11-23T05:36:15.885Z,4.93
2022-11-23T05:38:42.670Z,4.97
2022-11-23T05:41:09.210Z,5.25
2022-11-23T05:43:35.825Z,4.90
2022-11-23T05:46:02.726Z,4.87
2022-11-23T05:48:29.395Z,5.30
2022-11-23T05:50:58.604Z,5.22
2022-11-23T05:53:29.222Z,5.30
2022-11-23T05:55:59.998Z,5.53
2022-11-23T05:58:26.560Z,5.87
2022-11-23T06:00:56.708Z,6.37
2022-11-23T06:03:23.231Z,6.70
2022-11-23T06:05:49.912Z,6.45
2022-11-23T06:08:16.738Z,6.37
2022-11-23T06:10:43.440Z,6.12
2022-11-23T06:13:10.049Z,6.18
2022-11-23T06:15:36.708Z,6.82
2022-11-23T06:18:03.443Z,6.55
2022-11-23T06:20:30.039Z,6.93
2022-11-23T06:22:56.658Z,6.82
2022-11-23T06:25:23.396Z,7.18
2022-11-23T06:27:57.004Z,6.73
2022-11-23T06:30:24.403Z,6.78
2022-11-23T06:32:51.196Z,6.18
2022-11-23T06:35:17.840Z,6.85
2022-11-23T06:37:44.502Z,6.37
2022-11-23T06:40:12.689Z,7.47
2022-11-23T06:42:40.186Z,6.85
2022-11-23T06:45:07.820Z,7.07
2022-11-23T06:47:34.604Z,6.95
2022-11-23T06:50:01.468Z,7.12
2022-11-23T06:52:28.114Z,7.03
2022-11-23T06:54:54.955Z,7.62
2022-11-23T06:57:21.647Z,6.82
2022-11-23T06:59:48.644Z,7.45
2022-11-23T07:02:15.424Z,8.00
2022-11-23T07:04:42.439Z,7.37
2022-11-23T07:07:09.243Z,7.00
2022-11-23T07:09:36.098Z,8.23
2022-11-23T07:12:02.812Z,7.40
2022-11-23T07:14:29.470Z,7.35
2022-11-23T07:16:56.177Z,7.85
2022-11-23T07:19:22.954Z,7.82
2022-11-23T07:21:52.248Z,6.60
2022-11-23T07:24:19.060Z,7.68
2022-11-23T07:26:45.714Z,7.55
2022-11-23T07:29:12.374Z,7.22
2022-11-23T07:31:39.317Z,6.72
2022-11-23T07:34:06.017Z,7.05
2022-11-23T07:36:33.394Z,6.40
2022-11-23T07:39:00.971Z,6.82
2022-11-23T07:41:29.160Z,7.10
2022-11-23T07:43:55.998Z,6.50
2022-11-23T07:46:23.024Z,6.20
2022-11-23T07:48:49.795Z,7.30
2022-11-23T07:51:16.928Z,6.55
2022-11-23T07:53:43.507Z,6.60
2022-11-23T07:56:10.342Z,6.80
2022-11-23T07:58:39.640Z,6.22
2022-11-23T08:01:06.410Z,6.60
2022-11-23T08:03:33.185Z,6.78
2022-11-23T08:05:59.918Z,5.45
2022-11-23T08:08:26.649Z,6.68
2022-11-23T08:10:54.577Z,5.87
2022-11-23T08:13:21.923Z,6.15
2022-11-23T08:15:54.220Z,6.28
2022-11-23T08:18:21.429Z,6.62
2022-11-23T08:20:48.185Z,6.70
2022-11-23T08:23:16.047Z,6.10
2022-11-23T08:28:09.247Z,5.53
2022-11-23T08:30:36.260Z,5.45
2022-11-23T08:33:07.295Z,5.70
2022-11-23T08:35:39.178Z,5.57
2022-11-23T08:38:06.160Z,6.05
2022-11-23T08:40:33.232Z,5.93
2022-11-23T08:42:59.987Z,5.47
2022-11-23T08:45:45.483Z,4.65
2022-11-23T08:48:12.312Z,6.32
2022-11-23T08:50:40.807Z,5.65
2022-11-23T08:53:07.529Z,5.37
2022-11-23T08:55:34.280Z,5.78
2022-11-23T08:58:01.034Z,6.07
2022-11-23T09:00:28.068Z,6.10
2022-11-23T09:02:54.809Z,5.90
2022-11-23T09:05:22.041Z,5.65
2022-11-23T09:07:48.949Z,5.82
2022-11-23T09:10:18.627Z,5.93
2022-11-23T09:12:46.805Z,5.32
2022-11-23T09:15:15.533Z,5.47
2022-11-23T09:17:42.384Z,5.70
2022-11-23T09:20:10.347Z,5.22
2022-11-23T09:22:37.357Z,5.32
2022-11-23T09:25:04.389Z,4.53
2022-11-23T09:27:31.162Z,5.40
2022-11-23T09:29:57.876Z,4.82
2022-11-23T09:32:24.525Z,5.25
2022-11-23T09:34:51.217Z,4.97
2022-11-23T09:37:17.885Z,4.47
2022-11-23T09:39:45.180Z,5.90
2022-11-23T09:42:19.890Z,5.07
2022-11-23T09:45:08.839Z,4.62
2022-11-23T09:48:02.997Z,4.90
2022-11-23T09:50:49.542Z,5.57
2022-11-23T09:53:19.995Z,5.07
2022-11-23T09:55:48.799Z,5.40
2022-11-23T09:58:22.830Z,4.68
2022-11-23T10:01:52.420Z,5.28
2022-11-23T10:04:19.797Z,4.65
2022-11-23T10:06:50.716Z,5.47
2022-11-23T10:09:34.917Z,5.80
2022-11-23T10:12:07.775Z,5.47
2022-11-23T10:14:56.364Z,5.10
2022-11-23T10:18:01.027Z,5.45
2022-11-23T10:20:27.698Z,5.32
2022-11-23T10:25:44.730Z,4.70
2022-11-23T10:28:16.105Z,5.30
2022-11-23T10:30:43.386Z,5.70
2022-11-23T10:33:10.000Z,5.03
2022-11-23T10:35:38.364Z,5.30
2022-11-23T10:38:18.147Z,4.55
2022-11-23T10:40:47.346Z,5.00
2022-11-23T10:43:18.726Z,5.03
2022-11-23T10:45:45.312Z,5.07
2022-11-23T10:48:11.894Z,5.28
2022-11-23T10:50:40.834Z,4.87
2022-11-23T10:53:24.051Z,5.28
2022-11-23T10:55:58.244Z,5.10
2022-11-23T10:58:35.255Z,4.80
2022-11-23T11:01:12.222Z,4.65
2022-11-23T11:03:38.798Z,4.72
2022-11-23T11:06:10.271Z,4.75
2022-11-23T11:09:13.543Z,4.68
2022-11-23T11:11:42.578Z,4.70
